createdAt,value
2019-02-23T00:01:52.318Z,5.12
2019-02-23T00:04:29.289Z,4.50
2019-02-23T00:07:06.449Z,5.58
2019-02-23T00:09:43.963Z,4.60
2019-02-23T00:12:22.358Z,4.60
2019-02-23T00:14:59.411Z,4.30
2019-02-23T00:17:36.589Z,5.30
2019-02-23T00:20:13.663Z,5.10
2019-02-23T00:22:48.299Z,5.25
2019-02-23T00:25:22.819Z,5.10
2019-02-23T00:27:59.966Z,4.87
2019-02-23T00:30:38.030Z,4.97
2019-02-23T00:33:15.044Z,4.90
2019-02-23T00:35:52.074Z,4.95
2019-02-23T00:38:29.235Z,4.78
2019-02-23T00:41:06.329Z,5.20
2019-02-23T00:43:46.087Z,5.33
2019-02-23T00:46:23.307Z,5.08
2019-02-23T00:49:00.274Z,5.03
2019-02-23T00:51:37.387Z,5.00
2019-02-23T00:54:14.473Z,4.95
2019-02-23T00:56:49.097Z,5.60
2019-02-23T00:59:26.247Z,4.85
2019-02-23T01:02:03.416Z,5.00
2019-02-23T01:04:40.558Z,5.28
2019-02-23T01:07:17.685Z,5.60
2019-02-23T01:09:54.866Z,5.20
2019-02-23T01:12:33.227Z,5.80
2019-02-23T01:15:10.652Z,4.90
2019-02-23T01:17:49.598Z,5.35
2019-02-23T01:20:26.106Z,5.45
2019-02-23T01:23:03.168Z,4.67
2019-02-23T01:25:40.286Z,4.42
2019-02-23T01:28:18.320Z,4.78
2019-02-23T01:30:52.986Z,5.37
2019-02-23T01:33:30.024Z,4.97
2019-02-23T01:36:07.251Z,4.60
2019-02-23T01:38:44.307Z,4.70
2019-02-23T01:41:21.464Z,4.58
2019-02-23T01:43:56.174Z,6.40
2019-02-23T01:46:34.177Z,5.80
2019-02-23T01:49:11.182Z,5.12
2019-02-23T01:51:48.319Z,5.28
2019-02-23T01:54:25.510Z,5.40
2019-02-23T01:57:02.599Z,5.25
2019-02-23T01:59:39.800Z,5.72
2019-02-23T02:02:17.011Z,5.60
2019-02-23T02:04:51.631Z,5.37
2019-02-23T02:07:30.295Z,5.37
2019-02-23T02:10:09.474Z,6.12
2019-02-23T02:12:46.746Z,5.92
2019-02-23T02:15:24.134Z,6.12
2019-02-23T02:18:01.921Z,6.55
2019-02-23T02:20:39.073Z,5.60
2019-02-23T02:23:16.254Z,5.92
2019-02-23T02:25:53.417Z,6.08
2019-02-23T02:28:30.540Z,5.80
2019-02-23T02:31:07.603Z,5.30
2019-02-23T02:34:04.129Z,5.50
2019-02-23T02:36:41.242Z,5.65
2019-02-23T02:39:20.367Z,6.85
2019-02-23T02:41:55.012Z,5.83
2019-02-23T02:44:32.129Z,6.30
2019-02-23T02:47:09.226Z,6.12
2019-02-23T02:49:46.255Z,6.03
2019-02-23T02:52:23.346Z,5.55
2019-02-23T02:55:00.406Z,6.80
2019-02-23T02:57:37.414Z,6.12
2019-02-23T03:00:16.617Z,6.55
2019-02-23T03:02:53.722Z,5.78
2019-02-23T03:05:30.858Z,5.50
2019-02-23T03:08:07.999Z,6.00
2019-02-23T03:10:45.503Z,5.95
2019-02-23T03:13:22.575Z,6.20
2019-02-23T03:15:59.776Z,6.35
2019-02-23T03:18:36.860Z,5.75
2019-02-23T03:21:11.542Z,4.92
2019-02-23T03:23:46.354Z,4.95
2019-02-23T03:26:20.939Z,4.72
2019-02-23T03:28:55.666Z,4.83
2019-02-23T03:31:32.749Z,4.62
2019-02-23T03:34:10.243Z,5.17
2019-02-23T03:36:44.842Z,4.58
2019-02-23T03:39:21.884Z,4.30
2019-02-23T03:42:00.191Z,4.62
2019-02-23T03:44:41.764Z,4.30
2019-02-23T03:47:18.906Z,4.30
2019-02-23T03:49:56.039Z,4.53
2019-02-23T03:52:30.589Z,4.83
2019-02-23T03:55:07.663Z,4.42
2019-02-23T03:57:44.783Z,3.40
2019-02-23T04:00:22.420Z,4.22
2019-02-23T04:02:56.919Z,4.40
2019-02-23T04:05:34.149Z,4.50
2019-02-23T04:08:09.161Z,4.45
2019-02-23T04:10:47.531Z,4.12
2019-02-23T04:13:23.925Z,4.10
2019-02-23T04:15:59.025Z,4.42
2019-02-23T04:18:36.500Z,4.40
2019-02-23T04:21:11.189Z,4.30
2019-02-23T04:23:48.611Z,4.20
2019-02-23T04:26:25.883Z,4.00
2019-02-23T04:29:03.243Z,3.70
2019-02-23T04:31:40.417Z,3.72
2019-02-23T04:34:17.557Z,3.58
2019-02-23T04:36:54.620Z,2.87
2019-02-23T04:39:33.171Z,3.15
2019-02-23T04:42:10.421Z,3.00
2019-02-23T04:44:47.449Z,3.15
2019-02-23T04:47:24.741Z,2.87
2019-02-23T04:50:02.432Z,3.35
2019-02-23T04:52:36.962Z,3.12
2019-02-23T04:55:11.979Z,2.52
2019-02-23T04:57:46.616Z,2.62
2019-02-23T05:00:25.560Z,2.80
2019-02-23T05:03:03.016Z,2.60
2019-02-23T05:05:43.658Z,2.70
2019-02-23T05:08:21.161Z,2.62
2019-02-23T05:10:56.232Z,2.22
2019-02-23T05:13:31.350Z,2.83
2019-02-23T05:16:06.171Z,2.90
2019-02-23T05:18:43.815Z,2.40
2019-02-23T05:21:26.210Z,2.50
2019-02-23T05:23:56.900Z,2.50
2019-02-23T05:26:34.161Z,2.40
2019-02-23T05:29:11.969Z,2.40
2019-02-23T05:31:49.318Z,2.58
2019-02-23T05:34:27.791Z,2.65
2019-02-23T05:37:02.339Z,2.50
2019-02-23T05:39:39.746Z,2.58
2019-02-23T05:42:16.754Z,2.90
2019-02-23T05:44:51.326Z,2.40
2019-02-23T05:47:28.387Z,2.42
2019-02-23T05:50:02.991Z,2.42
2019-02-23T05:52:40.298Z,2.35
2019-02-23T05:55:17.611Z,2.60
2019-02-23T05:57:52.179Z,2.70
2019-02-23T06:00:29.575Z,2.40
2019-02-23T06:03:06.801Z,3.08
2019-02-23T06:05:43.901Z,2.27
2019-02-23T06:08:21.297Z,2.40
2019-02-23T06:10:58.487Z,2.80
2019-02-23T06:13:35.825Z,3.00
2019-02-23T06:16:10.500Z,3.10
2019-02-23T06:18:48.243Z,2.70
2019-02-23T06:21:23.003Z,2.67
2019-02-23T06:23:57.755Z,3.90
2019-02-23T06:26:34.842Z,3.60
2019-02-23T06:29:12.121Z,3.25
2019-02-23T06:31:46.690Z,3.10
2019-02-23T06:34:23.913Z,3.00
2019-02-23T06:39:46.698Z,2.90
2019-02-23T06:42:23.993Z,3.33
2019-02-23T06:45:01.226Z,3.47
2019-02-23T06:47:38.372Z,3.52
2019-02-23T06:50:15.540Z,3.52
2019-02-23T06:52:52.557Z,3.60
2019-02-23T06:55:29.928Z,3.22
2019-02-23T06:58:07.035Z,3.00
2019-02-23T07:00:45.790Z,3.30
2019-02-23T07:03:22.871Z,3.40
2019-02-23T07:06:00.019Z,3.70
2019-02-23T07:08:36.974Z,3.30
2019-02-23T07:11:14.285Z,3.50
2019-02-23T07:13:51.365Z,4.15
2019-02-23T07:16:28.916Z,3.83
2019-02-23T07:19:06.026Z,4.28
2019-02-23T07:21:44.505Z,4.20
2019-02-23T07:24:21.563Z,4.50
2019-02-23T07:26:58.898Z,4.10
2019-02-23T07:29:35.970Z,3.17
2019-02-23T07:32:10.702Z,3.17
2019-02-23T07:34:48.019Z,3.70
2019-02-23T07:37:25.342Z,3.90
2019-02-23T07:40:02.417Z,3.52
2019-02-23T07:42:37.378Z,3.45
2019-02-23T07:45:19.489Z,4.10
2019-02-23T07:47:54.269Z,3.60
2019-02-23T07:50:31.350Z,3.40
2019-02-23T07:53:08.762Z,3.30
2019-02-23T07:55:45.948Z,3.83
2019-02-23T07:58:23.533Z,3.60
2019-02-23T08:01:01.034Z,3.10
2019-02-23T08:03:38.573Z,3.30
2019-02-23T08:06:15.737Z,2.95
2019-02-23T08:08:50.875Z,2.67
2019-02-23T08:11:28.166Z,2.45
2019-02-23T08:14:05.322Z,2.70
2019-02-23T08:16:42.638Z,2.72
2019-02-23T08:19:22.019Z,2.40
2019-02-23T08:21:59.042Z,2.20
2019-02-23T08:24:36.430Z,2.22
2019-02-23T08:27:13.454Z,2.40
2019-02-23T08:29:50.778Z,2.50
2019-02-23T08:32:28.375Z,2.40
2019-02-23T08:35:07.916Z,2.90
2019-02-23T08:37:49.005Z,2.50
2019-02-23T08:40:26.661Z,2.42
2019-02-23T08:43:08.231Z,2.00
2019-02-23T08:45:47.807Z,2.25
2019-02-23T08:48:26.929Z,2.25
2019-02-23T08:51:06.608Z,2.25
2019-02-23T08:53:45.106Z,2.00
2019-02-23T08:56:35.012Z,2.47
2019-02-23T08:59:12.277Z,2.47
2019-02-23T09:01:50.951Z,2.50
2019-02-23T09:04:28.290Z,2.27
2019-02-23T09:07:05.868Z,2.67
2019-02-23T09:09:45.215Z,2.65
2019-02-23T09:12:27.235Z,2.67
2019-02-23T09:15:08.490Z,2.42
2019-02-23T09:17:47.482Z,2.58
2019-02-23T09:20:29.144Z,2.77
2019-02-23T09:23:03.866Z,2.98
2019-02-23T09:25:42.562Z,2.77
2019-02-23T09:28:31.261Z,2.90
2019-02-23T09:31:09.711Z,2.90
2019-02-23T09:33:48.887Z,2.55
2019-02-23T09:36:26.610Z,3.02
2019-02-23T09:39:06.405Z,2.98
2019-02-23T09:41:44.610Z,2.95
2019-02-23T09:44:22.126Z,3.60
2019-02-23T09:47:00.675Z,3.37
2019-02-23T09:49:39.664Z,4.05
2019-02-23T09:52:16.903Z,3.12
2019-02-23T09:54:54.187Z,3.60
2019-02-23T09:57:32.783Z,3.60
2019-02-23T10:00:14.662Z,3.02
2019-02-23T10:02:53.446Z,3.22
2019-02-23T10:05:32.106Z,3.50
2019-02-23T10:08:11.833Z,4.25
2019-02-23T10:10:49.638Z,4.35
2019-02-23T10:13:34.229Z,3.77
2019-02-23T10:16:14.435Z,4.15
2019-02-23T10:18:53.929Z,4.37
2019-02-23T10:21:31.787Z,4.25
2019-02-23T10:24:10.405Z,4.58
2019-02-23T10:26:49.891Z,3.70
2019-02-23T10:29:27.645Z,5.25
2019-02-23T10:32:09.256Z,4.72
2019-02-23T10:34:50.787Z,3.27
2019-02-23T10:37:30.055Z,3.37
2019-02-23T10:40:12.918Z,4.45
2019-02-23T10:42:55.253Z,5.53
2019-02-23T10:45:35.074Z,3.80
2019-02-23T10:48:20.091Z,2.90
2019-02-23T10:50:59.440Z,3.30
2019-02-23T10:53:33.774Z,2.92
2019-02-23T10:56:11.305Z,2.90
2019-02-23T10:58:48.039Z,3.00
2019-02-23T11:01:23.069Z,3.72
2019-02-23T11:04:01.014Z,3.10
2019-02-23T11:06:38.632Z,4.20
2019-02-23T11:09:21.564Z,3.90
2019-02-23T11:11:56.329Z,4.00
2019-02-23T11:14:31.231Z,4.50
2019-02-23T11:17:08.777Z,4.20
2019-02-23T11:19:46.339Z,4.22
2019-02-23T11:22:24.789Z,4.20
2019-02-23T11:24:59.896Z,4.05
2019-02-23T11:27:35.778Z,4.25
2019-02-23T11:30:11.320Z,3.80
2019-02-23T11:32:48.719Z,3.50
2019-02-23T11:35:23.592Z,3.90
2019-02-23T11:38:00.983Z,3.92
2019-02-23T11:40:40.802Z,3.55
2019-02-23T11:43:19.549Z,4.17
2019-02-23T11:45:55.633Z,3.55
2019-02-23T11:48:32.826Z,3.75
2019-02-23T11:51:10.105Z,3.50
2019-02-23T11:53:54.642Z,2.77
2019-02-23T11:56:25.623Z,3.40
2019-02-23T11:59:03.958Z,3.27
2019-02-23T12:01:41.271Z,3.15
2019-02-23T12:04:15.929Z,2.90
2019-02-23T12:06:53.615Z,3.17
2019-02-23T12:09:30.790Z,4.22
2019-02-23T12:12:08.904Z,3.65
2019-02-23T12:14:45.915Z,4.50
2019-02-23T12:17:23.252Z,4.35
2019-02-23T12:20:00.476Z,4.70
2019-02-23T12:22:37.906Z,4.85
2019-02-23T12:25:16.226Z,3.98
2019-02-23T12:27:53.805Z,3.17
2019-02-23T12:30:32.732Z,3.00
2019-02-23T12:33:09.129Z,2.80
2019-02-23T12:35:46.288Z,2.60
2019-02-23T12:48:15.776Z,3.00
2019-02-23T12:50:53.318Z,3.37
2019-02-23T12:53:32.273Z,3.10
2019-02-23T12:56:11.984Z,3.05
2019-02-23T12:58:50.022Z,3.40
2019-02-23T13:01:25.682Z,3.70
2019-02-23T13:04:02.776Z,2.87
2019-02-23T13:06:37.623Z,3.42
2019-02-23T13:09:36.088Z,3.20
2019-02-23T13:12:32.933Z,3.60
2019-02-23T13:15:13.224Z,3.65
2019-02-23T13:18:20.468Z,3.33
2019-02-23T13:21:16.008Z,3.40
2019-02-23T13:23:57.585Z,3.10
2019-02-23T13:27:01.790Z,3.47
2019-02-23T13:29:40.518Z,3.40
2019-02-23T13:32:31.187Z,3.58
2019-02-23T13:35:27.853Z,3.08
2019-02-23T13:38:12.078Z,3.65
2019-02-23T13:41:05.136Z,3.47
2019-02-23T13:43:47.004Z,3.83
2019-02-23T13:46:30.841Z,3.08
2019-02-23T13:49:26.453Z,3.22
2019-02-23T13:52:22.963Z,3.12
2019-02-23T13:55:18.041Z,3.02
2019-02-23T13:58:18.732Z,3.37
2019-02-23T14:01:09.984Z,3.42
2019-02-23T14:04:04.004Z,3.45
2019-02-23T14:06:59.055Z,3.50
2019-02-23T14:09:51.185Z,3.10
2019-02-23T14:12:38.035Z,3.20
2019-02-23T14:15:28.471Z,3.12
2019-02-23T14:18:22.325Z,2.60
2019-02-23T14:21:14.527Z,2.80
2019-02-23T14:24:17.969Z,2.77
2019-02-23T14:27:06.015Z,2.87
2019-02-23T14:29:56.451Z,2.55
2019-02-23T14:32:47.088Z,2.90
2019-02-23T14:35:42.659Z,2.30
2019-02-23T14:38:43.834Z,3.12
2019-02-23T14:41:51.257Z,3.30
2019-02-23T14:44:50.619Z,3.33
2019-02-23T14:47:45.602Z,3.35
2019-02-23T14:50:34.283Z,3.47
2019-02-23T14:53:25.729Z,3.37
2019-02-23T14:56:28.174Z,3.33
2019-02-23T14:59:06.531Z,3.45
2019-02-23T15:01:53.507Z,3.70
2019-02-23T15:04:44.037Z,3.50
2019-02-23T15:07:48.273Z,2.67
2019-02-23T15:10:31.586Z,3.62
2019-02-23T15:13:13.599Z,3.45
2019-02-23T15:16:04.219Z,3.10
2019-02-23T15:18:53.354Z,3.65
2019-02-23T15:21:41.069Z,3.12
2019-02-23T15:24:27.116Z,2.90
2019-02-23T15:27:25.675Z,3.37
2019-02-23T15:30:35.886Z,2.80
2019-02-23T15:33:44.231Z,2.92
2019-02-23T15:36:24.694Z,2.58
2019-02-23T15:39:29.596Z,2.85
2019-02-23T15:42:38.412Z,2.87
2019-02-23T15:45:45.157Z,2.35
2019-02-23T15:48:43.224Z,2.60
2019-02-23T15:51:20.777Z,2.58
2019-02-23T15:53:58.288Z,2.37
2019-02-23T15:56:40.498Z,2.27
2019-02-23T15:59:19.287Z,3.02
2019-02-23T16:01:56.938Z,2.72
2019-02-23T16:04:34.628Z,3.08
2019-02-23T16:07:13.035Z,3.02
2019-02-23T16:09:50.540Z,3.33
2019-02-23T16:12:29.435Z,3.70
2019-02-23T16:15:08.060Z,3.40
2019-02-23T16:17:47.641Z,2.85
2019-02-23T16:20:25.170Z,3.15
2019-02-23T16:23:04.616Z,3.35
2019-02-23T16:25:42.206Z,3.33
2019-02-23T16:28:20.061Z,2.77
2019-02-23T16:30:59.307Z,3.30
2019-02-23T16:33:36.584Z,3.05
2019-02-23T16:36:13.890Z,2.98
2019-02-23T16:38:51.566Z,3.22
2019-02-23T16:41:29.629Z,3.20
2019-02-23T16:44:07.141Z,4.65
2019-02-23T16:46:46.407Z,3.37
2019-02-23T16:49:23.195Z,3.30
2019-02-23T16:52:00.440Z,3.02
2019-02-23T16:54:41.234Z,2.85
2019-02-23T16:57:19.441Z,2.90
2019-02-23T16:59:56.820Z,3.27
2019-02-23T17:02:35.989Z,3.00
2019-02-23T17:05:12.720Z,3.90
2019-02-23T17:07:50.190Z,3.20
2019-02-23T17:10:27.517Z,3.72
2019-02-23T17:13:06.601Z,2.90
2019-02-23T17:15:44.211Z,4.12
2019-02-23T17:18:21.658Z,4.20
2019-02-23T17:21:00.636Z,2.85
2019-02-23T17:23:37.922Z,2.85
2019-02-23T17:26:17.181Z,3.22
2019-02-23T17:28:54.555Z,3.42
2019-02-23T17:31:32.041Z,3.08
2019-02-23T17:34:10.016Z,3.12
2019-02-23T17:36:47.657Z,3.42
2019-02-23T17:39:25.161Z,3.05
2019-02-23T17:42:02.522Z,3.30
2019-02-23T17:44:39.954Z,3.47
2019-02-23T17:47:17.396Z,3.25
2019-02-23T17:49:58.556Z,3.10
2019-02-23T17:52:37.546Z,2.92
2019-02-23T17:55:15.774Z,3.30
2019-02-23T17:57:53.633Z,3.10
2019-02-23T18:04:01.193Z,3.30
2019-02-23T18:06:38.218Z,3.15
2019-02-23T18:09:15.524Z,3.42
2019-02-23T18:11:52.543Z,2.70
2019-02-23T18:14:31.353Z,2.75
2019-02-23T18:17:08.485Z,2.95
2019-02-23T18:19:45.552Z,2.83
2019-02-23T18:22:22.823Z,2.92
2019-02-23T18:24:59.798Z,2.72
2019-02-23T18:27:36.887Z,2.77
2019-02-23T18:30:14.380Z,3.30
2019-02-23T18:32:52.297Z,2.92
2019-02-23T18:35:29.620Z,2.95
2019-02-23T18:38:06.748Z,3.37
2019-02-23T18:40:43.838Z,2.83
2019-02-23T18:43:20.864Z,2.67
2019-02-23T18:45:57.904Z,2.72
2019-02-23T18:48:36.327Z,3.33
2019-02-23T18:51:13.352Z,2.98
2019-02-23T18:53:50.383Z,3.25
2019-02-23T18:56:29.640Z,3.50
2019-02-23T18:59:05.733Z,2.90
2019-02-23T19:01:43.998Z,3.27
2019-02-23T19:04:21.046Z,3.50
2019-02-23T19:06:58.563Z,3.47
2019-02-23T19:09:35.573Z,3.20
2019-02-23T19:12:14.768Z,3.83
2019-02-23T19:14:51.035Z,3.80
2019-02-23T19:17:28.106Z,3.17
2019-02-23T19:20:05.148Z,3.55
2019-02-23T19:22:42.206Z,3.47
2019-02-23T19:25:19.338Z,3.02
2019-02-23T19:27:56.406Z,3.05
2019-02-23T19:30:33.474Z,2.70
2019-02-23T19:33:10.530Z,3.22
2019-02-23T19:35:47.536Z,2.65
2019-02-23T19:38:24.850Z,2.95
2019-02-23T19:41:01.848Z,3.30
2019-02-23T19:43:39.077Z,2.95
2019-02-23T19:46:16.202Z,2.83
2019-02-23T19:48:53.407Z,3.30
2019-02-23T19:51:30.458Z,3.22
2019-02-23T19:54:07.566Z,2.72
2019-02-23T19:56:46.800Z,2.90
2019-02-23T19:59:22.802Z,3.17
2019-02-23T20:01:59.840Z,3.02
2019-02-23T20:04:36.876Z,3.55
2019-02-23T20:07:13.883Z,3.37
2019-02-23T20:09:50.972Z,3.30
2019-02-23T20:12:28.241Z,3.25
2019-02-23T20:15:05.542Z,3.22
2019-02-23T20:17:42.577Z,2.65
2019-02-23T20:20:19.676Z,4.08
2019-02-23T20:22:56.731Z,3.30
2019-02-23T20:25:33.944Z,3.83
2019-02-23T20:28:10.984Z,3.70
2019-02-23T20:30:48.079Z,3.87
2019-02-23T20:33:25.153Z,3.55
2019-02-23T20:36:02.291Z,4.50
2019-02-23T20:38:39.585Z,4.10
2019-02-23T20:41:16.915Z,3.55
2019-02-23T20:43:54.044Z,4.42
2019-02-23T20:46:31.378Z,3.83
2019-02-23T20:49:08.491Z,3.77
2019-02-23T20:51:45.615Z,3.98
2019-02-23T20:54:22.628Z,3.02
2019-02-23T20:57:05.145Z,3.27
2019-02-23T20:59:37.939Z,2.90
2019-02-23T21:02:14.978Z,3.05
2019-02-23T21:04:52.062Z,2.90
2019-02-23T21:07:29.206Z,3.10
2019-02-23T21:10:06.630Z,2.65
2019-02-23T21:12:43.667Z,2.65
2019-02-23T21:15:20.852Z,2.55
2019-02-23T21:17:57.891Z,2.58
2019-02-23T21:20:34.962Z,2.50
2019-02-23T21:23:12.091Z,2.45
2019-02-23T21:25:49.251Z,2.20
2019-02-23T21:28:26.246Z,2.35
2019-02-23T21:31:03.281Z,2.50
2019-02-23T21:33:40.348Z,2.50
2019-02-23T21:36:17.573Z,2.83
2019-02-23T21:38:54.556Z,3.33
2019-02-23T21:41:31.617Z,3.05
2019-02-23T21:44:08.606Z,3.00
2019-02-23T21:46:45.664Z,3.60
2019-02-23T21:49:20.263Z,3.42
2019-02-23T21:51:54.864Z,3.10
2019-02-23T21:54:32.022Z,3.20
2019-02-23T21:57:09.168Z,3.45
2019-02-23T21:59:43.838Z,3.27
2019-02-23T22:02:20.930Z,3.17
2019-02-23T22:04:58.266Z,3.00
2019-02-23T22:07:35.355Z,3.62
2019-02-23T22:10:10.141Z,4.00
2019-02-23T22:12:47.450Z,3.65
2019-02-23T22:15:24.664Z,3.10
2019-02-23T22:18:01.854Z,3.27
2019-02-23T22:20:40.108Z,3.77
2019-02-23T22:23:17.356Z,3.37
2019-02-23T22:25:54.523Z,3.75
2019-02-23T22:28:31.715Z,3.33
2019-02-23T22:31:08.927Z,3.58
2019-02-23T22:33:46.224Z,3.80
2019-02-23T22:36:23.337Z,3.75
2019-02-23T22:39:00.449Z,3.47
2019-02-23T22:41:37.524Z,3.77
2019-02-23T22:44:14.587Z,3.85
2019-02-23T22:46:51.674Z,4.10
2019-02-23T22:49:29.380Z,3.62
2019-02-23T22:52:06.420Z,3.27
2019-02-23T22:54:43.613Z,3.90
2019-02-23T22:57:20.630Z,3.72
2019-02-23T22:59:57.580Z,3.85
2019-02-23T23:02:34.783Z,3.50
2019-02-23T23:05:11.987Z,3.77
2019-02-23T23:07:49.103Z,4.33
2019-02-23T23:10:26.212Z,3.45
2019-02-23T23:13:03.362Z,3.60
2019-02-23T23:15:40.404Z,3.27
2019-02-23T23:18:17.431Z,3.72
2019-02-23T23:20:54.481Z,3.40
2019-02-23T23:23:31.622Z,3.30
2019-02-23T23:26:08.723Z,3.75
2019-02-23T23:28:45.852Z,4.03
2019-02-23T23:31:22.891Z,4.28
2019-02-23T23:33:59.877Z,3.80
2019-02-23T23:36:37.034Z,3.70
2019-02-23T23:39:14.745Z,3.62
2019-02-23T23:41:51.726Z,4.60
2019-02-23T23:44:37.694Z,3.55
2019-02-23T23:47:14.814Z,3.95
2019-02-23T23:49:52.096Z,4.08
2019-02-23T23:52:29.280Z,3.60
2019-02-23T23:55:06.401Z,3.45
2019-02-23T23:57:43.417Z,3.58
